createdAt,value
2023-02-15T00:00:44.616Z,1010.72
2023-02-15T00:01:44.564Z,1010.68
2023-02-15T00:02:44.494Z,1010.65
2023-02-15T00:03:44.409Z,1010.64
2023-02-15T00:04:44.387Z,1010.64
2023-02-15T00:05:44.298Z,1010.69
2023-02-15T00:06:44.262Z,1010.64
2023-02-15T00:07:44.149Z,1010.63
2023-02-15T00:08:44.130Z,1010.64
2023-02-15T00:09:44.142Z,1010.61
2023-02-15T00:10:43.950Z,1010.57
2023-02-15T00:11:43.943Z,1010.64
2023-02-15T00:12:43.826Z,1010.63
2023-02-15T00:13:43.809Z,1010.63
2023-02-15T00:14:43.733Z,1010.61
2023-02-15T00:15:43.676Z,1010.60
2023-02-15T00:16:43.673Z,1010.67
2023-02-15T00:17:43.526Z,1010.63
2023-02-15T00:18:43.439Z,1010.66
2023-02-15T00:19:43.412Z,1010.66
2023-02-15T00:20:43.337Z,1010.59
2023-02-15T00:21:43.271Z,1010.61
2023-02-15T00:22:43.210Z,1010.59
2023-02-15T00:23:43.180Z,1010.61
2023-02-15T00:24:43.119Z,1010.59
2023-02-15T00:25:43.042Z,1010.60
2023-02-15T00:26:42.961Z,1010.62
2023-02-15T00:28:03.905Z,1010.54
2023-02-15T00:28:42.832Z,1010.53
2023-02-15T00:29:42.791Z,1010.49
2023-02-15T00:30:42.701Z,1010.48
2023-02-15T00:31:42.682Z,1010.50
2023-02-15T00:32:42.613Z,1010.46
2023-02-15T00:33:42.538Z,1010.42
2023-02-15T00:34:42.460Z,1010.47
2023-02-15T00:35:42.385Z,1010.43
2023-02-15T00:36:42.326Z,1010.38
2023-02-15T00:46:52.684Z,1010.33
2023-02-15T00:47:53.602Z,1010.33
2023-02-15T00:48:53.540Z,1010.31
2023-02-15T00:49:53.473Z,1010.32
2023-02-15T00:50:53.433Z,1010.29
2023-02-15T00:51:53.382Z,1010.27
2023-02-15T00:52:53.298Z,1010.27
2023-02-15T00:53:53.243Z,1010.28
2023-02-15T00:54:53.158Z,1010.34
2023-02-15T00:55:53.116Z,1010.28
2023-02-15T00:56:53.044Z,1010.24
2023-02-15T00:57:52.986Z,1010.26
2023-02-15T00:58:52.926Z,1010.24
2023-02-15T00:59:52.863Z,1010.26
2023-02-15T01:00:52.796Z,1010.24
2023-02-15T01:01:52.740Z,1010.25
2023-02-15T01:02:52.652Z,1010.23
2023-02-15T01:03:52.626Z,1010.19
2023-02-15T01:04:52.536Z,1010.24
2023-02-15T01:05:52.458Z,1010.22
2023-02-15T01:06:52.416Z,1010.25
2023-02-15T01:07:54.401Z,1010.27
2023-02-15T01:08:52.283Z,1010.21
2023-02-15T01:09:52.226Z,1010.24
2023-02-15T01:10:52.142Z,1010.22
2023-02-15T01:11:52.131Z,1010.22
2023-02-15T01:12:52.044Z,1010.21
2023-02-15T01:13:51.979Z,1010.22
2023-02-15T01:14:51.894Z,1010.21
2023-02-15T01:16:12.942Z,1010.18
2023-02-15T01:16:51.812Z,1010.19
2023-02-15T01:17:51.758Z,1010.18
2023-02-15T01:18:51.686Z,1010.18
2023-02-15T01:19:51.602Z,1010.18
2023-02-15T01:20:51.536Z,1010.15
2023-02-15T01:23:59.467Z,1010.12
2023-02-15T01:24:59.178Z,1010.12
2023-02-15T01:25:59.502Z,1010.18
2023-02-15T01:26:59.016Z,1010.18
2023-02-15T01:27:59.457Z,1010.16
2023-02-15T01:28:59.110Z,1010.12
2023-02-15T01:29:59.124Z,1010.12
2023-02-15T01:30:59.259Z,1010.17
2023-02-15T01:31:59.060Z,1010.12
2023-02-15T01:32:58.874Z,1010.14
2023-02-15T01:33:58.840Z,1010.10
2023-02-15T01:35:00.116Z,1010.13
2023-02-15T01:35:59.645Z,1010.08
2023-02-15T01:36:59.122Z,1010.08
2023-02-15T01:37:59.605Z,1010.03
2023-02-15T01:44:45.367Z,1010.03
2023-02-15T01:45:46.340Z,1010.00
2023-02-15T01:46:46.246Z,1010.03
2023-02-15T01:47:46.196Z,1010.02
2023-02-15T01:48:46.121Z,1009.96
2023-02-15T01:49:46.061Z,1010.01
2023-02-15T01:50:45.985Z,1009.97
2023-02-15T01:51:45.931Z,1010.03
2023-02-15T01:52:45.878Z,1009.94
2023-02-15T01:53:45.812Z,1009.99
2023-02-15T01:54:45.738Z,1010.03
2023-02-15T01:55:45.658Z,1009.98
2023-02-15T01:56:45.600Z,1009.98
2023-02-15T01:57:45.556Z,1010.00
2023-02-15T01:58:45.511Z,1010.00
2023-02-15T01:59:45.401Z,1010.00
2023-02-15T02:00:45.367Z,1009.96
2023-02-15T02:01:45.330Z,1009.97
2023-02-15T02:02:45.286Z,1009.93
2023-02-15T02:03:45.158Z,1009.94
2023-02-15T02:07:03.557Z,1009.89
2023-02-15T02:08:04.486Z,1009.83
2023-02-15T02:09:04.409Z,1009.92
2023-02-15T02:10:04.363Z,1009.91
2023-02-15T02:11:04.326Z,1009.93
2023-02-15T02:12:04.249Z,1009.93
2023-02-15T02:13:04.166Z,1009.91
2023-02-15T02:14:04.119Z,1009.92
2023-02-15T02:15:04.048Z,1009.87
2023-02-15T02:16:04.329Z,1009.92
2023-02-15T02:17:03.883Z,1009.90
2023-02-15T02:18:03.896Z,1009.93
2023-02-15T02:19:03.759Z,1009.94
2023-02-15T02:20:03.711Z,1009.93
2023-02-15T02:21:03.665Z,1009.93
2023-02-15T02:22:03.581Z,1009.89
2023-02-15T02:23:03.503Z,1009.96
2023-02-15T02:24:04.949Z,1009.93
2023-02-15T02:25:03.416Z,1009.94
2023-02-15T02:26:03.661Z,1009.95
2023-02-15T02:27:03.285Z,1009.94
2023-02-15T02:28:03.213Z,1009.90
2023-02-15T02:29:03.153Z,1009.92
2023-02-15T02:30:03.102Z,1009.95
2023-02-15T02:31:03.095Z,1009.91
2023-02-15T02:32:02.962Z,1009.90
2023-02-15T02:33:02.923Z,1009.92
2023-02-15T02:34:02.858Z,1009.91
2023-02-15T02:35:02.793Z,1009.91
2023-02-15T02:36:03.247Z,1009.89
2023-02-15T02:37:02.663Z,1009.86
2023-02-15T02:38:02.574Z,1009.86
2023-02-15T02:39:02.548Z,1009.87
2023-02-15T02:40:02.479Z,1009.87
2023-02-15T02:41:02.413Z,1009.83
2023-02-15T02:42:02.367Z,1009.83
2023-02-15T02:43:02.252Z,1009.84
2023-02-15T02:44:02.190Z,1009.81
2023-02-15T02:45:02.171Z,1009.78
2023-02-15T02:46:02.508Z,1009.73
2023-02-15T02:47:01.969Z,1009.77
2023-02-15T02:48:01.961Z,1009.77
2023-02-15T02:49:01.867Z,1009.77
2023-02-15T02:50:01.816Z,1009.78
2023-02-15T02:51:01.710Z,1009.74
2023-02-15T02:52:01.685Z,1009.71
2023-02-15T02:53:01.622Z,1009.67
2023-02-15T02:54:01.596Z,1009.81
2023-02-15T02:55:01.518Z,1009.71
2023-02-15T02:56:01.716Z,1009.60
2023-02-15T02:57:01.334Z,1009.63
2023-02-15T02:58:01.303Z,1009.59
2023-02-15T02:59:01.240Z,1009.58
2023-02-15T03:00:01.223Z,1009.59
2023-02-15T03:01:01.107Z,1009.59
2023-02-15T03:02:01.084Z,1009.55
2023-02-15T03:03:00.995Z,1009.54
2023-02-15T03:04:00.941Z,1009.52
2023-02-15T03:05:00.850Z,1009.47
2023-02-15T03:06:01.196Z,1009.47
2023-02-15T03:07:00.722Z,1009.43
2023-02-15T03:08:00.686Z,1009.43
2023-02-15T03:09:00.593Z,1009.43
2023-02-15T03:10:00.528Z,1009.39
2023-02-15T03:11:00.441Z,1009.40
2023-02-15T03:12:00.506Z,1009.37
2023-02-15T03:13:00.315Z,1009.36
2023-02-15T03:14:00.275Z,1009.39
2023-02-15T03:15:00.212Z,1009.30
2023-02-15T03:16:00.685Z,1009.36
2023-02-15T03:17:00.119Z,1009.36
2023-02-15T03:18:00.035Z,1009.23
2023-02-15T03:18:59.956Z,1009.27
2023-02-15T03:19:59.878Z,1009.25
2023-02-15T03:20:59.844Z,1009.22
2023-02-15T03:21:59.815Z,1009.21
2023-02-15T03:22:59.713Z,1009.24
2023-02-15T03:23:59.661Z,1009.29
2023-02-15T03:24:59.578Z,1009.23
2023-02-15T03:25:59.942Z,1009.20
2023-02-15T03:26:59.481Z,1009.24
2023-02-15T03:27:59.418Z,1009.20
2023-02-15T03:28:59.296Z,1009.20
2023-02-15T03:30:20.268Z,1009.21
2023-02-15T03:30:59.373Z,1009.21
2023-02-15T03:31:59.247Z,1009.18
2023-02-15T03:32:59.066Z,1009.15
2023-02-15T03:33:59.001Z,1009.17
2023-02-15T03:34:58.938Z,1009.15
2023-02-15T03:35:59.049Z,1009.13
2023-02-15T03:36:58.842Z,1009.21
2023-02-15T03:37:58.776Z,1009.16
2023-02-15T03:38:58.660Z,1009.17
2023-02-15T03:39:58.600Z,1009.20
2023-02-15T03:40:58.558Z,1009.18
2023-02-15T03:41:58.504Z,1009.10
2023-02-15T03:42:58.408Z,1009.11
2023-02-15T03:43:58.368Z,1009.18
2023-02-15T03:44:58.276Z,1009.14
2023-02-15T03:45:58.219Z,1009.14
2023-02-15T03:46:58.327Z,1009.12
2023-02-15T03:47:58.097Z,1009.09
2023-02-15T03:48:58.042Z,1009.11
2023-02-15T03:49:58.008Z,1009.10
2023-02-15T03:50:57.920Z,1009.13
2023-02-15T03:51:57.853Z,1009.06
2023-02-15T03:52:57.816Z,1009.04
2023-02-15T03:53:57.743Z,1009.00
2023-02-15T03:54:57.637Z,1008.99
2023-02-15T03:55:57.586Z,1009.00
2023-02-15T03:56:57.544Z,1009.01
2023-02-15T03:57:57.447Z,1009.00
2023-02-15T03:58:57.412Z,1009.01
2023-02-15T03:59:57.328Z,1009.05
2023-02-15T04:00:57.321Z,1009.08
2023-02-15T04:01:57.213Z,1009.06
2023-02-15T04:02:57.146Z,1009.07
2023-02-15T04:03:57.121Z,1009.01
2023-02-15T04:04:56.997Z,1009.05
2023-02-15T04:07:06.185Z,1009.06
2023-02-15T04:08:07.095Z,1008.99
2023-02-15T04:09:07.058Z,1009.00
2023-02-15T04:10:06.973Z,1009.00
2023-02-15T04:11:06.927Z,1009.01
2023-02-15T04:12:07.195Z,1009.01
2023-02-15T04:13:06.801Z,1008.96
2023-02-15T04:14:06.759Z,1008.95
2023-02-15T04:15:06.683Z,1008.97
2023-02-15T04:16:07.813Z,1008.95
2023-02-15T04:17:06.542Z,1008.95
2023-02-15T04:18:06.471Z,1008.95
2023-02-15T04:19:06.420Z,1008.94
2023-02-15T04:20:06.374Z,1008.98
2023-02-15T04:21:06.325Z,1008.97
2023-02-15T04:22:06.219Z,1008.96
2023-02-15T04:23:06.136Z,1008.99
2023-02-15T04:24:27.120Z,1008.94
2023-02-15T04:25:06.064Z,1008.95
2023-02-15T04:26:05.969Z,1008.97
2023-02-15T04:27:05.931Z,1008.92
2023-02-15T04:28:05.851Z,1008.94
2023-02-15T04:29:05.787Z,1008.95
2023-02-15T04:30:06.928Z,1008.96
2023-02-15T04:31:05.718Z,1008.96
2023-02-15T04:32:05.640Z,1008.95
2023-02-15T04:33:05.492Z,1008.93
2023-02-15T04:34:05.461Z,1008.91
2023-02-15T04:35:05.375Z,1008.93
2023-02-15T04:36:05.370Z,1008.92
2023-02-15T04:37:05.235Z,1008.85
2023-02-15T04:38:05.231Z,1008.89
2023-02-15T04:39:05.130Z,1008.91
2023-02-15T04:40:05.103Z,1008.93
2023-02-15T04:41:05.037Z,1008.97
2023-02-15T04:42:04.940Z,1008.93
2023-02-15T04:43:04.895Z,1008.95
2023-02-15T04:44:04.819Z,1008.97
2023-02-15T04:45:04.756Z,1008.95
2023-02-15T04:46:05.180Z,1008.93
2023-02-15T04:47:04.648Z,1008.91
2023-02-15T04:48:04.574Z,1008.88
2023-02-15T04:49:04.468Z,1008.95
2023-02-15T04:50:04.445Z,1008.92
2023-02-15T04:51:04.348Z,1008.93
2023-02-15T04:52:04.341Z,1008.93
2023-02-15T04:53:04.274Z,1008.92
2023-02-15T04:54:04.200Z,1008.86
2023-02-15T04:55:04.095Z,1008.89
2023-02-15T04:56:04.222Z,1008.89
2023-02-15T04:57:03.962Z,1008.87
2023-02-15T04:58:03.897Z,1008.84
2023-02-15T04:59:03.836Z,1008.83
2023-02-15T05:00:03.804Z,1008.85
2023-02-15T05:01:03.842Z,1008.85
2023-02-15T05:02:03.667Z,1008.87
2023-02-15T05:03:03.607Z,1008.86
2023-02-15T05:04:03.566Z,1008.82
2023-02-15T05:05:03.479Z,1008.83
2023-02-15T05:06:03.666Z,1008.80
2023-02-15T05:07:03.361Z,1008.80
2023-02-15T05:08:03.310Z,1008.79
2023-02-15T05:09:03.246Z,1008.80
2023-02-15T05:10:03.128Z,1008.76
2023-02-15T05:11:03.066Z,1008.76
2023-02-15T05:12:03.054Z,1008.71
2023-02-15T05:13:02.968Z,1008.71
2023-02-15T05:14:02.922Z,1008.72
2023-02-15T05:15:02.844Z,1008.71
2023-02-15T05:16:03.192Z,1008.70
2023-02-15T05:17:02.689Z,1008.69
2023-02-15T05:18:02.669Z,1008.67
2023-02-15T05:19:02.582Z,1008.64
2023-02-15T05:20:02.525Z,1008.62
2023-02-15T05:21:02.463Z,1008.67
2023-02-15T05:22:02.423Z,1008.64
2023-02-15T05:23:02.304Z,1008.65
2023-02-15T05:24:02.276Z,1008.64
2023-02-15T05:25:02.184Z,1008.66
2023-02-15T05:26:02.380Z,1008.64
2023-02-15T05:27:02.072Z,1008.64
2023-02-15T05:28:04.357Z,1008.65
2023-02-15T05:29:01.943Z,1008.61
2023-02-15T05:30:02.076Z,1008.64
2023-02-15T05:31:02.097Z,1008.61
2023-02-15T05:32:01.935Z,1008.61
2023-02-15T05:33:01.734Z,1008.60
2023-02-15T05:34:01.621Z,1008.58
2023-02-15T05:35:01.594Z,1008.66
2023-02-15T05:37:40.519Z,1008.65
2023-02-15T05:38:41.422Z,1008.65
2023-02-15T05:39:41.402Z,1008.71
2023-02-15T05:40:41.324Z,1008.71
2023-02-15T05:41:41.246Z,1008.70
2023-02-15T05:42:41.175Z,1008.75
2023-02-15T05:43:41.104Z,1008.72
2023-02-15T05:44:41.053Z,1008.72
2023-02-15T05:45:40.990Z,1008.75
2023-02-15T05:46:40.939Z,1008.76
2023-02-15T05:47:40.841Z,1008.75
2023-02-15T05:48:40.782Z,1008.80
2023-02-15T05:49:40.746Z,1008.78
2023-02-15T05:50:40.664Z,1008.78
2023-02-15T05:51:40.631Z,1008.79
2023-02-15T05:52:40.558Z,1008.79
2023-02-15T05:55:19.532Z,1008.82
2023-02-15T05:56:20.418Z,1008.82
2023-02-15T05:57:20.359Z,1008.81
2023-02-15T05:58:20.271Z,1008.83
2023-02-15T05:59:20.235Z,1008.83
2023-02-15T06:00:20.182Z,1008.83
2023-02-15T06:01:20.137Z,1008.85
2023-02-15T06:02:20.092Z,1008.83
2023-02-15T06:03:20.012Z,1008.90
2023-02-15T06:04:19.944Z,1008.87
2023-02-15T06:05:19.839Z,1008.89
2023-02-15T06:06:19.764Z,1008.84
2023-02-15T06:07:19.698Z,1008.84
2023-02-15T06:08:19.670Z,1008.89
2023-02-15T06:09:19.677Z,1008.85
2023-02-15T06:10:19.500Z,1008.87
2023-02-15T06:11:19.444Z,1008.88
2023-02-15T06:12:19.356Z,1008.85
2023-02-15T06:13:19.372Z,1008.92
2023-02-15T06:14:19.316Z,1008.92
2023-02-15T06:15:19.152Z,1008.93
2023-02-15T06:16:19.181Z,1008.88
2023-02-15T06:17:19.082Z,1008.92
2023-02-15T06:18:19.000Z,1008.93
2023-02-15T06:19:18.887Z,1008.93
2023-02-15T06:20:18.843Z,1008.94
2023-02-15T06:21:18.788Z,1008.92
2023-02-15T06:22:18.746Z,1008.87
2023-02-15T06:23:18.716Z,1008.89
2023-02-15T06:24:18.561Z,1008.89
2023-02-15T06:25:18.531Z,1008.90
2023-02-15T06:26:18.495Z,1008.93
2023-02-15T06:27:18.437Z,1008.87
2023-02-15T06:28:18.366Z,1008.91
2023-02-15T06:29:18.329Z,1008.93
2023-02-15T06:30:18.316Z,1008.90
2023-02-15T06:31:18.302Z,1008.94
2023-02-15T06:32:18.059Z,1008.93
2023-02-15T06:33:18.126Z,1008.95
2023-02-15T06:34:17.957Z,1008.95
2023-02-15T06:35:17.909Z,1008.89
2023-02-15T06:36:17.884Z,1008.91
2023-02-15T06:37:17.750Z,1008.91
2023-02-15T06:38:17.702Z,1008.97
2023-02-15T06:39:17.663Z,1008.91
2023-02-15T06:40:17.580Z,1008.98
2023-02-15T06:41:17.524Z,1008.94
2023-02-15T06:42:17.436Z,1008.95
2023-02-15T06:43:17.380Z,1008.92
2023-02-15T06:44:17.345Z,1008.92
2023-02-15T06:45:17.234Z,1008.90
2023-02-15T06:46:17.214Z,1008.90
2023-02-15T06:47:17.133Z,1008.92
2023-02-15T06:48:17.102Z,1008.89
2023-02-15T06:49:17.031Z,1008.88
2023-02-15T06:50:20.426Z,1008.88
2023-02-15T06:51:18.297Z,1008.84
2023-02-15T06:52:17.623Z,1008.86
2023-02-15T06:53:18.341Z,1008.88
2023-02-15T06:54:17.312Z,1008.85
2023-02-15T06:55:16.633Z,1008.83
2023-02-15T06:56:16.578Z,1008.83
2023-02-15T06:57:16.499Z,1008.81
2023-02-15T06:58:16.438Z,1008.80
2023-02-15T06:59:16.392Z,1008.85
2023-02-15T07:00:16.340Z,1008.82
2023-02-15T07:01:16.272Z,1008.77
2023-02-15T07:02:16.154Z,1008.77
2023-02-15T07:03:16.119Z,1008.74
2023-02-15T07:04:16.118Z,1008.75
2023-02-15T07:06:25.188Z,1008.78
2023-02-15T07:07:26.155Z,1008.72
2023-02-15T07:08:26.092Z,1008.73
2023-02-15T07:09:25.979Z,1008.71
2023-02-15T07:10:25.964Z,1008.65
2023-02-15T07:11:25.901Z,1008.74
2023-02-15T07:12:25.852Z,1008.72
2023-02-15T07:13:25.752Z,1008.67
2023-02-15T07:14:27.626Z,1008.64
2023-02-15T07:15:25.655Z,1008.72
2023-02-15T07:16:25.653Z,1008.67
2023-02-15T07:17:35.569Z,1008.68
2023-02-15T07:18:25.438Z,1008.72
2023-02-15T07:19:25.397Z,1008.66
2023-02-15T07:20:25.313Z,1008.59
2023-02-15T07:21:25.244Z,1008.58
2023-02-15T07:22:25.182Z,1008.61
2023-02-15T07:23:46.074Z,1008.56
2023-02-15T07:24:25.050Z,1008.64
2023-02-15T07:25:25.042Z,1008.62
2023-02-15T07:26:24.927Z,1008.61
2023-02-15T07:27:24.844Z,1008.68
2023-02-15T07:28:24.831Z,1008.66
2023-02-15T07:29:24.752Z,1008.64
2023-02-15T07:30:24.767Z,1008.58
2023-02-15T07:31:24.594Z,1008.71
2023-02-15T07:32:24.715Z,1008.65
2023-02-15T07:33:24.477Z,1008.56
2023-02-15T07:34:24.403Z,1008.56
2023-02-15T07:35:24.361Z,1008.58
2023-02-15T07:36:24.251Z,1008.58
2023-02-15T07:37:24.210Z,1008.60
2023-02-15T07:38:24.184Z,1008.60
2023-02-15T07:39:24.109Z,1008.62
2023-02-15T07:40:24.002Z,1008.60
2023-02-15T07:41:23.951Z,1008.65
2023-02-15T07:42:23.887Z,1008.60
2023-02-15T07:43:23.856Z,1008.60
2023-02-15T07:44:23.774Z,1008.64
2023-02-15T07:45:23.732Z,1008.62
2023-02-15T07:46:23.673Z,1008.61
2023-02-15T07:47:23.589Z,1008.61
2023-02-15T07:48:24.999Z,1008.60
2023-02-15T07:49:23.452Z,1008.64
2023-02-15T07:50:23.382Z,1008.64
2023-02-15T07:51:23.321Z,1008.63
2023-02-15T07:52:23.245Z,1008.60
2023-02-15T07:53:23.196Z,1008.61
2023-02-15T07:54:23.135Z,1008.63
2023-02-15T07:55:23.048Z,1008.56
2023-02-15T07:56:23.003Z,1008.55
2023-02-15T07:57:22.937Z,1008.55
2023-02-15T07:58:22.874Z,1008.58
2023-02-15T07:59:43.833Z,1008.54
2023-02-15T08:00:22.739Z,1008.52
2023-02-15T08:01:22.709Z,1008.51
2023-02-15T08:02:22.620Z,1008.53
2023-02-15T08:03:22.698Z,1008.51
2023-02-15T08:04:22.491Z,1008.54
2023-02-15T08:05:22.447Z,1008.53
2023-02-15T08:06:22.406Z,1008.55
2023-02-15T08:07:22.368Z,1008.55
2023-02-15T08:08:22.205Z,1008.56
2023-02-15T08:09:22.148Z,1008.52
2023-02-15T08:10:24.436Z,1008.60
2023-02-15T08:11:22.441Z,1008.56
2023-02-15T08:12:22.000Z,1008.53
2023-02-15T08:13:21.898Z,1008.59
2023-02-15T08:14:21.859Z,1008.56
2023-02-15T08:15:21.768Z,1008.59
2023-02-15T08:16:21.731Z,1008.55
2023-02-15T08:18:30.813Z,1008.53
2023-02-15T08:19:31.768Z,1008.59
2023-02-15T08:20:31.684Z,1008.61
2023-02-15T08:21:31.652Z,1008.64
2023-02-15T08:22:31.581Z,1008.67
2023-02-15T08:23:31.561Z,1008.64
2023-02-15T08:24:31.488Z,1008.69
2023-02-15T08:25:31.396Z,1008.65
2023-02-15T08:26:31.330Z,1008.65
2023-02-15T08:27:31.267Z,1008.69
2023-02-15T08:28:31.203Z,1008.70
2023-02-15T08:29:31.201Z,1008.67
2023-02-15T08:30:31.155Z,1008.67
2023-02-15T08:31:31.125Z,1008.68
2023-02-15T08:32:30.978Z,1008.75
2023-02-15T08:33:30.905Z,1008.66
2023-02-15T08:34:30.813Z,1008.69
2023-02-15T08:35:51.742Z,1008.68
2023-02-15T08:36:30.700Z,1008.62
2023-02-15T08:37:30.626Z,1008.59
2023-02-15T08:38:33.190Z,1008.60
2023-02-15T08:39:30.467Z,1008.59
2023-02-15T08:40:30.463Z,1008.62
2023-02-15T08:41:30.415Z,1008.57
2023-02-15T08:42:30.305Z,1008.56
2023-02-15T08:43:30.246Z,1008.57
2023-02-15T08:44:30.221Z,1008.55
2023-02-15T08:45:30.242Z,1008.53
2023-02-15T08:46:30.089Z,1008.46
2023-02-15T08:47:29.973Z,1008.48
2023-02-15T08:48:29.954Z,1008.46
2023-02-15T08:49:29.853Z,1008.42
2023-02-15T08:50:29.793Z,1008.44
2023-02-15T08:51:29.718Z,1008.40
2023-02-15T08:52:29.724Z,1008.42
2023-02-15T08:53:50.601Z,1008.39
2023-02-15T08:54:29.547Z,1008.35
2023-02-15T08:55:29.478Z,1008.40
2023-02-15T08:56:29.447Z,1008.36
2023-02-15T08:57:29.345Z,1008.37
2023-02-15T08:58:29.330Z,1008.31
2023-02-15T08:59:29.251Z,1008.32
2023-02-15T09:00:29.219Z,1008.31
2023-02-15T09:01:29.173Z,1008.31
2023-02-15T09:02:29.095Z,1008.28
2023-02-15T09:03:29.022Z,1008.24
2023-02-15T09:04:28.945Z,1008.26
2023-02-15T09:05:28.843Z,1008.25
2023-02-15T09:06:28.786Z,1008.29
2023-02-15T09:07:28.685Z,1008.25
2023-02-15T09:08:28.612Z,1008.23
2023-02-15T09:09:28.599Z,1008.27
2023-02-15T09:10:28.521Z,1008.23
2023-02-15T09:11:28.479Z,1008.23
2023-02-15T09:12:28.428Z,1008.26
2023-02-15T09:13:28.352Z,1008.23
2023-02-15T09:14:28.321Z,1008.25
2023-02-15T09:15:28.223Z,1008.28
2023-02-15T09:16:28.162Z,1008.27
2023-02-15T09:17:28.120Z,1008.25
2023-02-15T09:18:28.033Z,1008.23
2023-02-15T09:19:27.997Z,1008.22
2023-02-15T09:20:27.877Z,1008.21
2023-02-15T09:21:27.858Z,1008.21
2023-02-15T09:22:27.785Z,1008.18
2023-02-15T09:23:27.786Z,1008.21
2023-02-15T09:24:27.663Z,1008.15
2023-02-15T09:25:27.580Z,1008.11
2023-02-15T09:26:27.498Z,1008.14
2023-02-15T09:27:27.477Z,1008.08
2023-02-15T09:28:27.407Z,1008.09
2023-02-15T09:31:36.144Z,1008.11
2023-02-15T09:32:36.938Z,1008.07
2023-02-15T09:33:36.973Z,1008.05
2023-02-15T09:34:36.865Z,1008.13
2023-02-15T09:35:36.809Z,1008.14
2023-02-15T09:36:36.736Z,1008.13
2023-02-15T09:37:36.649Z,1008.17
2023-02-15T09:38:36.593Z,1008.07
2023-02-15T09:39:36.552Z,1008.14
2023-02-15T09:40:36.450Z,1008.13
2023-02-15T09:41:36.722Z,1008.14
2023-02-15T09:42:36.326Z,1008.14
2023-02-15T09:43:36.288Z,1008.16
2023-02-15T09:44:36.232Z,1008.17
2023-02-15T09:45:36.254Z,1008.14
2023-02-15T09:46:36.054Z,1008.20
2023-02-15T09:47:36.044Z,1008.20
2023-02-15T09:48:35.963Z,1008.23
2023-02-15T09:49:35.910Z,1008.26
2023-02-15T09:50:36.816Z,1008.22
2023-02-15T09:51:35.767Z,1008.21
2023-02-15T09:52:35.663Z,1008.26
2023-02-15T09:53:35.672Z,1008.23
2023-02-15T09:54:35.574Z,1008.20
2023-02-15T09:55:35.478Z,1008.22
2023-02-15T09:56:35.404Z,1008.17
2023-02-15T09:57:35.373Z,1008.16
2023-02-15T09:58:35.307Z,1008.14
2023-02-15T09:59:35.259Z,1008.16
2023-02-15T10:00:35.223Z,1008.18
2023-02-15T10:01:35.186Z,1008.18
2023-02-15T10:02:35.092Z,1008.16
2023-02-15T10:03:34.994Z,1008.21
2023-02-15T10:04:35.025Z,1008.22
2023-02-15T10:05:34.845Z,1008.20
2023-02-15T10:06:34.850Z,1008.22
2023-02-15T10:07:34.734Z,1008.21
2023-02-15T10:08:34.685Z,1008.23
2023-02-15T10:09:34.608Z,1008.20
2023-02-15T10:10:34.607Z,1008.20
2023-02-15T10:11:34.563Z,1008.19
2023-02-15T10:12:36.636Z,1008.18
2023-02-15T10:13:34.371Z,1008.20
2023-02-15T10:14:34.339Z,1008.16
2023-02-15T10:15:35.025Z,1008.25
2023-02-15T10:16:34.232Z,1008.19
2023-02-15T10:17:34.078Z,1008.15
2023-02-15T10:18:34.108Z,1008.14
2023-02-15T10:19:33.974Z,1008.15
2023-02-15T10:20:33.953Z,1008.19
2023-02-15T10:21:33.839Z,1008.25
2023-02-15T10:22:33.848Z,1008.21
2023-02-15T10:23:33.748Z,1008.21
2023-02-15T10:24:40.520Z,1008.19
2023-02-15T10:25:33.560Z,1008.18
2023-02-15T10:26:33.583Z,1008.19
2023-02-15T10:27:33.482Z,1008.17
2023-02-15T10:28:33.443Z,1008.18
2023-02-15T10:29:33.377Z,1008.15
2023-02-15T10:30:33.421Z,1008.17
2023-02-15T10:31:33.277Z,1008.16
2023-02-15T10:32:33.155Z,1008.13
2023-02-15T10:33:33.142Z,1008.20
2023-02-15T10:34:33.048Z,1008.15
2023-02-15T10:35:32.978Z,1008.14
2023-02-15T10:36:32.877Z,1008.10
2023-02-15T10:37:32.820Z,1008.08
2023-02-15T10:38:32.772Z,1008.09
2023-02-15T10:39:32.684Z,1008.15
2023-02-15T10:40:32.673Z,1008.08
2023-02-15T10:41:53.568Z,1008.12
2023-02-15T10:42:32.494Z,1008.08
2023-02-15T10:43:32.431Z,1008.07
2023-02-15T10:44:32.379Z,1008.03
2023-02-15T10:45:32.336Z,1008.00
2023-02-15T10:46:32.342Z,1007.92
2023-02-15T10:47:32.162Z,1007.94
2023-02-15T10:48:32.137Z,1007.99
2023-02-15T10:49:32.056Z,1007.92
2023-02-15T10:50:32.013Z,1007.88
2023-02-15T10:51:31.943Z,1007.94
2023-02-15T10:52:31.842Z,1007.83
2023-02-15T10:53:31.861Z,1007.81
2023-02-15T10:54:31.736Z,1007.86
2023-02-15T10:55:31.640Z,1007.85
2023-02-15T10:56:31.575Z,1007.83
2023-02-15T10:57:31.565Z,1007.84
2023-02-15T10:58:31.502Z,1007.86
2023-02-15T11:00:40.638Z,1007.79
2023-02-15T11:01:41.557Z,1007.81
2023-02-15T11:02:41.452Z,1007.86
2023-02-15T11:03:41.427Z,1007.85
2023-02-15T11:04:41.341Z,1007.81
2023-02-15T11:05:41.297Z,1007.84
2023-02-15T11:06:41.184Z,1007.87
2023-02-15T11:07:41.119Z,1007.90
2023-02-15T11:08:41.094Z,1007.91
2023-02-15T11:09:40.974Z,1007.93
2023-02-15T11:10:40.916Z,1007.90
2023-02-15T11:11:40.932Z,1007.89
2023-02-15T11:12:40.784Z,1007.91
2023-02-15T11:13:40.775Z,1007.92
2023-02-15T11:14:40.991Z,1007.87
2023-02-15T11:15:40.639Z,1007.91
2023-02-15T11:16:40.595Z,1007.88
2023-02-15T11:18:01.711Z,1007.85
2023-02-15T11:18:41.860Z,1007.84
2023-02-15T11:19:50.658Z,1007.82
2023-02-15T11:20:42.664Z,1007.77
2023-02-15T11:21:42.111Z,1007.74
2023-02-15T11:22:51.379Z,1007.76
2023-02-15T11:23:43.474Z,1007.73
2023-02-15T11:24:41.010Z,1007.75
2023-02-15T11:26:30.838Z,1007.77
2023-02-15T11:27:31.754Z,1007.81
2023-02-15T11:28:31.659Z,1007.77
2023-02-15T11:29:31.649Z,1007.72
2023-02-15T11:30:31.600Z,1007.73
2023-02-15T11:31:31.557Z,1007.71
2023-02-15T11:32:31.441Z,1007.76
2023-02-15T11:33:31.397Z,1007.75
2023-02-15T11:34:31.638Z,1007.75
2023-02-15T11:35:31.228Z,1007.76
2023-02-15T11:36:31.202Z,1007.76
2023-02-15T11:37:31.127Z,1007.77
2023-02-15T11:38:31.053Z,1007.75
2023-02-15T11:39:30.974Z,1007.74
2023-02-15T11:40:30.936Z,1007.74
2023-02-15T11:41:30.901Z,1007.76
2023-02-15T11:42:30.786Z,1007.71
2023-02-15T11:43:30.753Z,1007.68
2023-02-15T11:44:30.664Z,1007.68
2023-02-15T11:45:30.643Z,1007.65
2023-02-15T11:46:30.524Z,1007.64
2023-02-15T11:47:30.513Z,1007.64
2023-02-15T11:48:30.419Z,1007.73
2023-02-15T11:49:30.361Z,1007.69
2023-02-15T11:50:30.315Z,1007.68
2023-02-15T11:51:30.222Z,1007.70
2023-02-15T11:52:30.195Z,1007.66
2023-02-15T11:53:51.109Z,1007.64
2023-02-15T11:54:30.029Z,1007.70
2023-02-15T11:55:29.975Z,1007.63
2023-02-15T11:56:29.941Z,1007.61
2023-02-15T11:57:29.844Z,1007.62
2023-02-15T11:58:29.759Z,1007.60
2023-02-15T11:59:29.707Z,1007.60
2023-02-15T12:00:29.681Z,1007.62
2023-02-15T12:01:29.588Z,1007.60
2023-02-15T12:02:29.590Z,1007.55
2023-02-15T12:03:29.509Z,1007.53
2023-02-15T12:04:29.395Z,1007.55
2023-02-15T12:05:29.367Z,1007.51
2023-02-15T12:06:29.288Z,1007.57
2023-02-15T12:07:29.240Z,1007.47
2023-02-15T12:08:29.145Z,1007.48
2023-02-15T12:09:29.107Z,1007.49
2023-02-15T12:10:29.060Z,1007.49
2023-02-15T12:13:38.592Z,1007.43
2023-02-15T12:14:40.527Z,1007.49
2023-02-15T12:15:40.677Z,1007.48
2023-02-15T12:16:39.452Z,1007.50
2023-02-15T12:17:39.366Z,1007.47
2023-02-15T12:18:39.297Z,1007.47
2023-02-15T12:19:39.239Z,1007.44
2023-02-15T12:20:39.244Z,1007.50
2023-02-15T12:21:39.046Z,1007.48
2023-02-15T12:22:39.188Z,1007.43
2023-02-15T12:23:38.946Z,1007.41
2023-02-15T12:24:38.857Z,1007.35
2023-02-15T12:25:38.809Z,1007.35
2023-02-15T12:26:38.747Z,1007.39
2023-02-15T12:27:38.725Z,1007.42
2023-02-15T12:28:40.920Z,1007.38
2023-02-15T12:29:59.607Z,1007.39
2023-02-15T12:30:38.466Z,1007.39
2023-02-15T12:31:38.556Z,1007.38
2023-02-15T12:32:38.342Z,1007.36
2023-02-15T12:33:38.301Z,1007.41
2023-02-15T12:34:38.237Z,1007.35
2023-02-15T12:35:38.213Z,1007.31
2023-02-15T12:36:38.113Z,1007.28
2023-02-15T12:37:38.048Z,1007.25